AIJ438 MMTM-MMMX
Flight info
| Callsign | AIJ438 |
|---|---|
| Flight time | 0h 34m |
| Altitude | 26000 |
| Route | NOTO1A/14 NOTOR UT102 PAZ UT154 ENAGA ENAGA3A |
| Aircraft | A20N/M-SDE2E3FGHIRWXY/LB1 |
Departure
| Time | 2026-05-08 03:34 |
|---|---|
| Airport | General Francisco Javier Mina International Airport (MMTM) |
Arrival
| Time | 2026-05-08 04:08 |
|---|---|
| Airport | Mexico City Benito Juárez International Airport (MMMX) |
| Time | Latitude | Longitude | Altitude | Speed | Heading |
|---|---|---|---|---|---|
| 2026-05-08 03:34 | 22.04050 | -97.78325 | 5160 ft | 323 kts | 223° |
| 2026-05-08 03:34 | 22.02424 | -97.79933 | 4850 ft | 311 kts | 208° |
| 2026-05-08 03:34 | 22.00438 | -97.80644 | 4591 ft | 295 kts | 181° |
| 2026-05-08 03:34 | 21.98493 | -97.80410 | 4650 ft | 271 kts | 166° |
| 2026-05-08 03:35 | 21.96656 | -97.79733 | 4325 ft | 294 kts | 153° |
| 2026-05-08 03:35 | 21.94799 | -97.78791 | 3954 ft | 294 kts | 153° |
| 2026-05-08 03:35 | 21.92944 | -97.77960 | 3920 ft | 282 kts | 157° |
| 2026-05-08 03:36 | 21.89741 | -97.76832 | 4709 ft | 269 kts | 161° |
| 2026-05-08 03:36 | 21.87921 | -97.76283 | 5192 ft | 274 kts | 163° |
| 2026-05-08 03:36 | 21.86095 | -97.75802 | 5322 ft | 268 kts | 165° |
| 2026-05-08 03:36 | 21.84269 | -97.75370 | 5432 ft | 269 kts | 166° |
| 2026-05-08 03:37 | 21.82434 | -97.74943 | 5549 ft | 270 kts | 166° |
| 2026-05-08 03:37 | 21.80608 | -97.74514 | 5657 ft | 269 kts | 165° |
| 2026-05-08 03:37 | 21.78769 | -97.74074 | 5852 ft | 272 kts | 165° |
| 2026-05-08 03:37 | 21.76921 | -97.73627 | 6614 ft | 272 kts | 166° |
| 2026-05-08 03:38 | 21.75087 | -97.73180 | 7551 ft | 276 kts | 166° |
| 2026-05-08 03:38 | 21.73167 | -97.72712 | 8408 ft | 282 kts | 166° |
| 2026-05-08 03:38 | 21.71234 | -97.72242 | 9278 ft | 287 kts | 166° |
| 2026-05-08 03:38 | 21.69283 | -97.71769 | 10042 ft | 295 kts | 167° |
| 2026-05-08 03:39 | 21.67239 | -97.71272 | 10587 ft | 311 kts | 167° |
| 2026-05-08 03:39 | 21.65046 | -97.70740 | 10874 ft | 334 kts | 167° |
| 2026-05-08 03:39 | 21.62728 | -97.70179 | 11351 ft | 346 kts | 167° |
| 2026-05-08 03:39 | 21.60375 | -97.69609 | 12161 ft | 348 kts | 167° |
| 2026-05-08 03:40 | 21.58003 | -97.69034 | 12924 ft | 353 kts | 167° |
| 2026-05-08 03:40 | 21.55591 | -97.68451 | 13673 ft | 357 kts | 168° |
| 2026-05-08 03:40 | 21.53159 | -97.67863 | 14351 ft | 360 kts | 168° |
| 2026-05-08 03:40 | 21.50697 | -97.67268 | 15008 ft | 365 kts | 168° |
| 2026-05-08 03:41 | 21.48206 | -97.66666 | 15671 ft | 369 kts | 168° |
| 2026-05-08 03:41 | 21.45688 | -97.66057 | 16338 ft | 373 kts | 168° |
| 2026-05-08 03:41 | 21.43150 | -97.65444 | 16994 ft | 376 kts | 168° |
| 2026-05-08 03:41 | 21.40576 | -97.64823 | 17630 ft | 381 kts | 169° |
| 2026-05-08 03:42 | 21.37974 | -97.64195 | 18252 ft | 385 kts | 169° |
| 2026-05-08 03:42 | 21.35351 | -97.63563 | 18845 ft | 388 kts | 169° |
| 2026-05-08 03:42 | 21.32718 | -97.62928 | 19449 ft | 390 kts | 169° |
| 2026-05-08 03:42 | 21.30056 | -97.62335 | 20048 ft | 391 kts | 174° |
| 2026-05-08 03:43 | 21.27344 | -97.62313 | 20624 ft | 391 kts | 189° |
| 2026-05-08 03:43 | 21.24721 | -97.63085 | 21201 ft | 392 kts | 202° |
| 2026-05-08 03:43 | 21.22192 | -97.64196 | 21774 ft | 395 kts | 203° |
| 2026-05-08 03:43 | 21.19655 | -97.65358 | 22354 ft | 398 kts | 204° |
| 2026-05-08 03:44 | 21.17095 | -97.66538 | 22931 ft | 400 kts | 204° |
| 2026-05-08 03:44 | 21.14525 | -97.67719 | 23493 ft | 403 kts | 203° |
| 2026-05-08 03:44 | 21.11934 | -97.68903 | 23961 ft | 406 kts | 203° |
| 2026-05-08 03:44 | 21.09336 | -97.70086 | 24447 ft | 408 kts | 203° |
| 2026-05-08 03:45 | 21.06714 | -97.71276 | 24911 ft | 410 kts | 203° |
| 2026-05-08 03:45 | 21.04074 | -97.72474 | 25364 ft | 413 kts | 203° |
| 2026-05-08 03:45 | 21.01421 | -97.73677 | 25627 ft | 415 kts | 203° |
| 2026-05-08 03:45 | 20.98760 | -97.74883 | 25732 ft | 415 kts | 203° |
| 2026-05-08 03:46 | 20.96098 | -97.76089 | 25830 ft | 416 kts | 203° |
| 2026-05-08 03:46 | 20.93431 | -97.77297 | 25906 ft | 417 kts | 203° |
| 2026-05-08 03:46 | 20.90761 | -97.78506 | 25914 ft | 417 kts | 203° |
| 2026-05-08 03:46 | 20.88093 | -97.79714 | 25918 ft | 416 kts | 203° |
| 2026-05-08 03:47 | 20.85426 | -97.80921 | 25920 ft | 417 kts | 203° |
| 2026-05-08 03:47 | 20.82756 | -97.82129 | 25922 ft | 417 kts | 203° |
| 2026-05-08 03:47 | 20.80091 | -97.83334 | 25918 ft | 417 kts | 203° |
| 2026-05-08 03:47 | 20.77420 | -97.84541 | 25922 ft | 417 kts | 203° |
| 2026-05-08 03:48 | 20.74746 | -97.85748 | 25924 ft | 416 kts | 203° |
| 2026-05-08 03:48 | 20.72077 | -97.86954 | 25930 ft | 417 kts | 203° |
| 2026-05-08 03:48 | 20.69408 | -97.88159 | 25931 ft | 417 kts | 203° |
| 2026-05-08 03:48 | 20.66740 | -97.89363 | 25934 ft | 417 kts | 203° |
| 2026-05-08 03:49 | 20.64066 | -97.90569 | 25936 ft | 417 kts | 203° |
| 2026-05-08 03:49 | 20.61396 | -97.91773 | 25938 ft | 417 kts | 203° |
| 2026-05-08 03:49 | 20.58761 | -97.92960 | 25944 ft | 417 kts | 203° |
| 2026-05-08 03:49 | 20.56055 | -97.94180 | 25951 ft | 417 kts | 203° |
| 2026-05-08 03:50 | 20.53419 | -97.95366 | 25956 ft | 417 kts | 203° |
| 2026-05-08 03:50 | 20.50748 | -97.96569 | 25956 ft | 417 kts | 203° |
| 2026-05-08 03:50 | 20.48082 | -97.97769 | 25964 ft | 417 kts | 203° |
| 2026-05-08 03:50 | 20.45410 | -97.98971 | 25974 ft | 417 kts | 203° |
| 2026-05-08 03:51 | 20.42737 | -98.00173 | 25980 ft | 417 kts | 203° |
| 2026-05-08 03:51 | 20.40065 | -98.01373 | 25987 ft | 417 kts | 203° |
| 2026-05-08 03:51 | 20.37392 | -98.02575 | 25992 ft | 417 kts | 203° |
| 2026-05-08 03:51 | 20.34708 | -98.03781 | 26002 ft | 418 kts | 203° |
| 2026-05-08 03:52 | 20.32038 | -98.04979 | 26006 ft | 417 kts | 203° |
| 2026-05-08 03:52 | 20.29373 | -98.06175 | 26014 ft | 417 kts | 203° |
| 2026-05-08 03:52 | 20.26698 | -98.07375 | 26024 ft | 417 kts | 203° |
| 2026-05-08 03:52 | 20.24017 | -98.08577 | 26030 ft | 418 kts | 203° |
| 2026-05-08 03:53 | 20.21362 | -98.09768 | 26040 ft | 417 kts | 203° |
| 2026-05-08 03:53 | 20.18668 | -98.10975 | 26050 ft | 418 kts | 203° |
| 2026-05-08 03:53 | 20.15981 | -98.12180 | 26055 ft | 419 kts | 203° |
| 2026-05-08 03:53 | 20.13298 | -98.13381 | 26068 ft | 418 kts | 203° |
| 2026-05-08 03:54 | 20.10623 | -98.14578 | 26072 ft | 418 kts | 203° |
| 2026-05-08 03:54 | 20.07944 | -98.15800 | 26074 ft | 418 kts | 206° |
| 2026-05-08 03:54 | 20.05474 | -98.17428 | 26087 ft | 419 kts | 218° |
| 2026-05-08 03:54 | 20.03390 | -98.19579 | 26094 ft | 420 kts | 230° |
| 2026-05-08 03:55 | 20.01776 | -98.22182 | 26101 ft | 423 kts | 242° |
| 2026-05-08 03:55 | 20.00722 | -98.25103 | 26082 ft | 424 kts | 253° |
| 2026-05-08 03:55 | 20.00092 | -98.28155 | 25785 ft | 422 kts | 256° |
| 2026-05-08 03:55 | 19.99490 | -98.31206 | 25296 ft | 420 kts | 256° |
| 2026-05-08 03:56 | 19.98816 | -98.34208 | 24771 ft | 415 kts | 249° |
| 2026-05-08 03:56 | 19.97586 | -98.36949 | 24162 ft | 409 kts | 235° |
| 2026-05-08 03:56 | 19.95784 | -98.39225 | 23902 ft | 395 kts | 224° |
| 2026-05-08 03:56 | 19.93858 | -98.41191 | 23710 ft | 373 kts | 222° |
| 2026-05-08 03:57 | 19.92022 | -98.43034 | 23523 ft | 353 kts | 223° |
| 2026-05-08 03:57 | 19.90297 | -98.44820 | 23136 ft | 341 kts | 224° |
| 2026-05-08 03:57 | 19.88637 | -98.46595 | 22437 ft | 339 kts | 225° |
| 2026-05-08 03:57 | 19.86981 | -98.48404 | 21449 ft | 345 kts | 225° |
| 2026-05-08 03:58 | 19.85289 | -98.50275 | 20276 ft | 357 kts | 226° |
| 2026-05-08 03:58 | 19.83542 | -98.52214 | 19129 ft | 368 kts | 226° |
| 2026-05-08 03:58 | 19.81752 | -98.54202 | 17958 ft | 377 kts | 226° |
| 2026-05-08 03:58 | 19.79931 | -98.56225 | 16721 ft | 383 kts | 226° |
| 2026-05-08 03:59 | 19.78079 | -98.58282 | 15512 ft | 386 kts | 226° |
| 2026-05-08 03:59 | 19.76223 | -98.60342 | 14368 ft | 388 kts | 226° |
| 2026-05-08 03:59 | 19.74357 | -98.62412 | 13276 ft | 386 kts | 226° |
| 2026-05-08 03:59 | 19.72519 | -98.64452 | 12459 ft | 377 kts | 226° |
| 2026-05-08 04:00 | 19.70756 | -98.66408 | 12174 ft | 354 kts | 226° |
| 2026-05-08 04:00 | 19.69110 | -98.68233 | 12014 ft | 331 kts | 226° |
| 2026-05-08 04:00 | 19.67568 | -98.69942 | 11897 ft | 310 kts | 225° |
| 2026-05-08 04:00 | 19.66130 | -98.71535 | 11817 ft | 288 kts | 225° |
| 2026-05-08 04:01 | 19.64795 | -98.73014 | 11819 ft | 266 kts | 225° |
| 2026-05-08 04:01 | 19.63578 | -98.74362 | 11821 ft | 240 kts | 225° |
| 2026-05-08 04:01 | 19.62489 | -98.75570 | 11823 ft | 213 kts | 225° |
| 2026-05-08 04:01 | 19.61482 | -98.76686 | 11841 ft | 213 kts | 225° |
| 2026-05-08 04:02 | 19.60448 | -98.77828 | 11838 ft | 212 kts | 225° |
| 2026-05-08 04:02 | 19.59477 | -98.78902 | 11838 ft | 192 kts | 225° |
| 2026-05-08 04:02 | 19.58681 | -98.79986 | 11858 ft | 187 kts | 237° |
| 2026-05-08 04:02 | 19.58019 | -98.81195 | 11843 ft | 190 kts | 238° |
| 2026-05-08 04:03 | 19.57352 | -98.82403 | 11850 ft | 190 kts | 238° |
| 2026-05-08 04:03 | 19.56018 | -98.84794 | 11827 ft | 187 kts | 238° |
| 2026-05-08 04:03 | 19.55358 | -98.85972 | 11566 ft | 186 kts | 238° |
| 2026-05-08 04:04 | 19.54701 | -98.87149 | 11102 ft | 186 kts | 238° |
| 2026-05-08 04:04 | 19.54029 | -98.88326 | 10645 ft | 185 kts | 237° |
| 2026-05-08 04:04 | 19.53366 | -98.89492 | 10483 ft | 188 kts | 237° |
| 2026-05-08 04:04 | 19.52693 | -98.90697 | 10304 ft | 190 kts | 237° |
| 2026-05-08 04:05 | 19.52022 | -98.91900 | 10109 ft | 189 kts | 237° |
| 2026-05-08 04:05 | 19.51353 | -98.93101 | 9879 ft | 190 kts | 237° |
| 2026-05-08 04:05 | 19.50682 | -98.94305 | 9646 ft | 189 kts | 237° |
| 2026-05-08 04:05 | 19.50014 | -98.95502 | 9419 ft | 189 kts | 237° |
| 2026-05-08 04:06 | 19.49348 | -98.96695 | 9245 ft | 189 kts | 238° |
| 2026-05-08 04:06 | 19.48671 | -98.97909 | 9081 ft | 192 kts | 239° |
| 2026-05-08 04:06 | 19.47989 | -98.99131 | 8910 ft | 193 kts | 240° |
| 2026-05-08 04:06 | 19.47305 | -99.00358 | 8668 ft | 194 kts | 240° |
| 2026-05-08 04:07 | 19.46640 | -99.01548 | 8344 ft | 178 kts | 240° |
| 2026-05-08 04:07 | 19.46044 | -99.02615 | 8023 ft | 159 kts | 241° |
| 2026-05-08 04:07 | 19.45501 | -99.03589 | 7786 ft | 155 kts | 242° |
| 2026-05-08 04:07 | 19.44949 | -99.04579 | 7531 ft | 154 kts | 242° |
| 2026-05-08 04:08 | 19.44411 | -99.05541 | 7324 ft | 147 kts | 242° |
| 2026-05-08 04:08 | 19.44084 | -99.06135 | 7302 ft | 125 kts | 239° |
| 2026-05-08 04:08 | 19.43726 | -99.06767 | 7303 ft | 78 kts | 240° |
| 2026-05-08 04:08 | 19.43559 | -99.07068 | 7302 ft | 12 kts | 239° |
| 2026-05-08 04:09 | 19.43418 | -99.07321 | 7302 ft | 48 kts | 239° |
| 2026-05-08 04:09 | 19.43229 | -99.07441 | 7302 ft | 22 kts | 192° |
| 2026-05-08 04:09 | 19.43114 | -99.07507 | 7303 ft | 17 kts | 236° |
| 2026-05-08 04:09 | 19.43051 | -99.07613 | 7303 ft | 18 kts | 239° |
| 2026-05-08 04:10 | 19.43007 | -99.07679 | 7302 ft | 2 kts | 206° |
| 2026-05-08 04:10 | 19.42983 | -99.07723 | 7302 ft | 12 kts | 241° |
| 2026-05-08 04:10 | 19.42960 | -99.07764 | 7302 ft | 6 kts | 238° |
| 2026-05-08 04:10 | 19.42922 | -99.07796 | 7302 ft | 8 kts | 199° |
| 2026-05-08 04:11 | 19.42866 | -99.07821 | 7302 ft | 10 kts | 203° |
| 2026-05-08 04:11 | 19.42800 | -99.07853 | 7302 ft | 8 kts | 199° |
| 2026-05-08 04:11 | 19.42735 | -99.07860 | 7302 ft | 10 kts | 168° |
| 2026-05-08 04:11 | 19.42664 | -99.07826 | 7302 ft | 12 kts | 166° |
| 2026-05-08 04:12 | 19.42576 | -99.07809 | 7302 ft | 14 kts | 182° |
| 2026-05-08 04:12 | 19.42515 | -99.07830 | 7302 ft | 2 kts | 206° |
| 2026-05-08 04:12 | 19.42492 | -99.07841 | 7302 ft | 0 kts | 201° |